Time;durP1;ratioP1;P1;durP2;ratioP2;P2;SDS_P1;SDS_P2;PMS_P1;PMS_P2;Temp;Humidity;BMP_temperature;BMP_pressure;BME280_temperature;BME280_humidity;BME280_pressure;Samples;Min_cycle;Max_cycle;Signal;HPM_P1;HPM_P2
2022/07/05 00:01:34;;;;;;;4.40;3.42;;;;;;;15.98;76.01;102015.28;5098528;28;20031;-59
2022/07/05 00:03:59;;;;;;;3.67;3.20;;;;;;;16.02;75.79;102014.34;5098396;28;20039;-58
2022/07/05 00:06:24;;;;;;;5.30;3.38;;;;;;;15.93;76.27;102017.16;5098355;28;20036;-58
2022/07/05 00:08:50;;;;;;;4.65;3.40;;;;;;;15.82;76.97;102012.03;5098313;28;20053;-58
2022/07/05 00:11:15;;;;;;;4.28;3.58;;;;;;;15.79;77.75;102008.56;5098239;28;20032;-58
2022/07/05 00:13:41;;;;;;;4.43;3.40;;;;;;;15.77;77.40;102005.97;5098364;28;20028;-58
2022/07/05 00:16:06;;;;;;;4.35;3.75;;;;;;;15.76;77.46;101985.75;5097965;28;20328;-59
2022/07/05 00:18:31;;;;;;;5.05;4.20;;;;;;;15.77;77.84;102005.09;5098104;28;20107;-58
2022/07/05 00:20:56;;;;;;;4.80;4.18;;;;;;;15.82;77.69;102000.63;5098319;28;20123;-58
2022/07/05 00:23:22;;;;;;;10.77;4.32;;;;;;;15.75;78.19;102009.53;5098254;28;20056;-58
2022/07/05 00:25:47;;;;;;;5.57;4.28;;;;;;;15.73;78.42;102009.56;5098001;28;20088;-58
2022/07/05 00:28:14;;;;;;;5.57;4.97;;;;;;;15.75;78.17;102004.28;5097723;28;20110;-58
2022/07/05 00:30:40;;;;;;;8.40;5.35;;;;;;;15.69;78.81;102004.34;5097735;28;20384;-59
2022/07/05 00:33:05;;;;;;;6.30;4.57;;;;;;;15.71;78.32;102006.09;5097902;28;20119;-58
2022/07/05 00:35:30;;;;;;;7.22;4.88;;;;;;;15.54;79.37;102002.81;5098007;28;20024;-58
2022/07/05 00:37:56;;;;;;;7.60;4.65;;;;;;;15.51;79.55;102003.72;5097761;28;20024;-58
2022/07/05 00:40:21;;;;;;;8.00;4.40;;;;;;;15.46;79.95;102008.19;5097656;28;20093;-58
2022/07/05 00:42:47;;;;;;;6.80;4.80;;;;;;;15.40;80.40;102000.38;5097283;28;20036;-59
2022/07/05 00:45:13;;;;;;;7.32;4.80;;;;;;;15.39;80.37;102005.66;5097747;28;20046;-59
2022/07/05 00:47:38;;;;;;;7.75;4.90;;;;;;;15.33;80.82;102004.00;5097697;28;20028;-58
2022/07/05 00:50:04;;;;;;;6.43;4.80;;;;;;;15.32;80.81;102002.25;5097742;28;20139;-58
2022/07/05 00:52:29;;;;;;;7.68;5.20;;;;;;;15.30;80.83;102004.03;5097472;28;20028;-58
2022/07/05 00:54:54;;;;;;;7.88;5.20;;;;;;;15.26;81.16;101994.41;5096948;28;20462;-58
2022/07/05 00:57:21;;;;;;;7.10;5.18;;;;;;;15.20;81.31;102007.69;5097304;28;20142;-59
2022/07/05 00:59:47;;;;;;;6.85;4.85;;;;;;;15.14;81.51;101999.84;5097350;28;20028;-59
2022/07/05 01:02:12;;;;;;;6.03;5.05;;;;;;;15.16;81.81;102006.88;5097328;28;20043;-58
2022/07/05 01:04:37;;;;;;;5.85;4.80;;;;;;;15.18;81.93;102006.84;5097133;28;20036;-58
2022/07/05 01:07:03;;;;;;;7.20;4.90;;;;;;;15.13;82.00;102006.91;5097261;28;20111;-58
2022/07/05 01:09:29;;;;;;;6.50;5.03;;;;;;;15.08;82.45;102008.72;5097067;28;20359;-58
2022/07/05 01:11:55;;;;;;;9.05;5.13;;;;;;;15.01;82.79;102012.34;5096962;28;20053;-58
2022/07/05 01:14:22;;;;;;;6.38;4.70;;;;;;;15.05;82.00;102007.91;5096867;28;20028;-58
2022/07/05 01:16:49;;;;;;;7.53;4.70;;;;;;;14.98;82.42;102015.00;5097088;28;20035;-58
2022/07/05 01:19:16;;;;;;;6.10;5.00;;;;;;;14.86;83.38;102010.78;5096539;28;20032;-58
2022/07/05 01:21:46;;;;;;;7.47;4.70;;;;;;;14.83;83.57;102005.53;5097000;28;20348;-57
2022/07/05 01:24:14;;;;;;;7.22;4.90;;;;;;;14.84;83.14;102003.78;5096308;28;20032;-59
2022/07/05 01:26:40;;;;;;;6.78;4.22;;;;;;;14.77;83.18;102010.88;5096659;28;20099;-58
2022/07/05 01:29:07;;;;;;;6.47;4.45;;;;;;;14.76;83.31;102011.75;5096819;28;20082;-58
2022/07/05 01:31:33;;;;;;;4.85;4.20;;;;;;;14.71;83.97;102007.47;5096882;28;20048;-57
2022/07/05 01:33:58;;;;;;;5.70;4.00;;;;;;;14.70;83.94;101996.06;5096583;28;20408;-58
2022/07/05 01:36:24;;;;;;;5.50;4.45;;;;;;;14.71;84.25;102005.69;5096758;28;20047;-58
2022/07/05 01:38:50;;;;;;;6.93;4.28;;;;;;;14.69;84.15;102004.84;5097228;28;20032;-58
2022/07/05 01:41:15;;;;;;;6.50;4.70;;;;;;;14.69;83.97;102009.25;5096316;28;20032;-58
2022/07/05 01:43:40;;;;;;;5.85;4.57;;;;;;;14.65;83.75;102008.41;5096606;28;20111;-57
2022/07/05 01:46:08;;;;;;;6.07;4.35;;;;;;;14.68;83.65;102013.63;5096482;28;20111;-57
2022/07/05 01:48:35;;;;;;;6.25;4.10;;;;;;;14.57;84.26;102020.75;5096346;28;20028;-58
2022/07/05 01:51:05;;;;;;;7.35;4.28;;;;;;;14.54;84.68;102007.66;5096489;28;20350;-57
2022/07/05 01:53:31;;;;;;;5.18;4.03;;;;;;;14.59;84.69;102014.59;5095345;28;20032;-59
2022/07/05 01:56:01;;;;;;;6.82;4.22;;;;;;;14.55;84.79;102007.59;5096120;28;20031;-58
2022/07/05 01:58:27;;;;;;;6.57;4.28;;;;;;;14.54;84.83;102011.16;5096104;28;20043;-58
2022/07/05 02:00:54;;;;;;;6.05;4.72;;;;;;;14.45;85.51;102008.63;5096141;28;20032;-58
2022/07/05 02:03:20;;;;;;;5.30;4.35;;;;;;;14.43;85.02;102006.88;5095867;28;20042;-58
2022/07/05 02:05:46;;;;;;;8.13;4.60;;;;;;;14.40;85.52;102001.59;5096005;28;20028;-58
2022/07/05 02:08:13;;;;;;;7.22;4.95;;;;;;;14.39;85.99;101999.84;5096012;28;20038;-58
2022/07/05 02:10:39;;;;;;;6.10;4.40;;;;;;;14.39;85.93;101999.84;5095504;28;20043;-59
2022/07/05 02:13:05;;;;;;;5.85;4.88;;;;;;;14.26;86.65;101999.13;5096131;28;20040;-58
2022/07/05 02:15:32;;;;;;;7.18;5.10;;;;;;;14.26;86.71;101997.38;5095849;28;20028;-59
2022/07/05 02:17:57;;;;;;;5.60;4.82;;;;;;;14.29;86.57;101999.09;5095880;28;20047;-59
2022/07/05 02:20:22;;;;;;;7.13;5.07;;;;;;;14.22;86.94;101992.13;5096028;28;20027;-58
2022/07/05 02:22:48;;;;;;;7.30;5.03;;;;;;;14.26;87.00;101996.50;5095611;28;20427;-59
2022/07/05 02:25:13;;;;;;;7.03;4.90;;;;;;;14.15;87.68;101998.38;5095803;28;20040;-58
2022/07/05 02:27:38;;;;;;;6.50;4.90;;;;;;;14.14;87.26;101986.97;5095443;28;20036;-59
2022/07/05 02:30:04;;;;;;;7.47;5.30;;;;;;;14.15;86.67;101986.09;5095121;28;20024;-59
2022/07/05 02:32:31;;;;;;;7.47;4.97;;;;;;;14.17;86.51;101993.97;5095548;28;20052;-59
2022/07/05 02:34:56;;;;;;;7.00;5.32;;;;;;;14.15;86.96;102003.63;5095647;28;20040;-59
2022/07/05 02:37:22;;;;;;;6.47;5.43;;;;;;;14.16;87.16;102001.00;5095503;28;20065;-59
2022/07/05 02:39:47;;;;;;;7.10;5.18;;;;;;;14.03;86.87;101986.19;5095639;28;20024;-59
2022/07/05 02:42:12;;;;;;;7.95;6.57;;;;;;;14.18;86.43;102000.97;5095372;28;20476;-59
2022/07/05 02:44:38;;;;;;;6.35;5.30;;;;;;;14.18;86.58;101998.34;5095332;28;20047;-59
2022/07/05 02:47:03;;;;;;;7.00;5.90;;;;;;;14.08;86.71;101997.53;5095407;28;20024;-59
2022/07/05 02:49:29;;;;;;;7.95;5.93;;;;;;;14.09;86.35;101999.28;5095464;28;20043;-59
2022/07/05 02:51:54;;;;;;;9.73;6.38;;;;;;;14.10;86.26;102002.78;5095616;28;20027;-58
2022/07/05 02:54:19;;;;;;;7.95;6.10;;;;;;;14.01;87.26;102002.91;5094777;28;20036;-58
2022/07/05 02:56:44;;;;;;;7.95;6.35;;;;;;;14.05;86.66;101999.31;5095165;28;20027;-58
2022/07/05 02:59:10;;;;;;;10.75;6.93;;;;;;;14.02;86.89;102002.88;5095075;28;20023;-59
2022/07/05 03:01:35;;;;;;;8.27;6.50;;;;;;;14.04;86.67;102008.97;5095834;28;20020;-58
2022/07/05 03:04:00;;;;;;;11.90;6.63;;;;;;;14.07;86.85;102010.72;5095046;28;20047;-58
2022/07/05 03:06:25;;;;;;;9.40;6.20;;;;;;;14.05;85.93;102005.47;5095209;28;20028;-58
2022/07/05 03:08:51;;;;;;;9.68;6.85;;;;;;;13.94;86.32;102004.69;5077147;28;20329;-58
2022/07/05 03:11:16;;;;;;;11.65;6.22;;;;;;;13.70;87.00;102018.91;5094957;28;20111;-58
2022/07/05 03:13:42;;;;;;;6.78;6.05;;;;;;;13.53;87.90;102026.03;5095106;28;20035;-59
2022/07/05 03:16:07;;;;;;;10.20;6.35;;;;;;;13.53;88.73;102023.41;5094918;28;20114;-59
2022/07/05 03:18:33;;;;;;;9.82;6.45;;;;;;;13.61;88.34;102026.00;5094919;28;20145;-59
2022/07/05 03:20:58;;;;;;;8.20;6.07;;;;;;;13.54;88.51;102033.94;5095128;28;20043;-59
2022/07/05 03:23:23;;;;;;;7.18;5.95;;;;;;;13.47;89.35;102026.97;5094910;28;20110;-59
2022/07/05 03:25:48;;;;;;;10.63;6.50;;;;;;;13.55;88.97;102037.44;5095039;28;20067;-59
2022/07/05 03:28:14;;;;;;;7.47;5.85;;;;;;;13.52;88.33;102033.06;5094614;28;20028;-59
2022/07/05 03:30:39;;;;;;;8.10;5.90;;;;;;;13.43;88.81;102029.63;5094583;28;20024;-59
2022/07/05 03:33:04;;;;;;;8.32;6.40;;;;;;;13.32;89.55;102034.97;5094586;28;20052;-58
2022/07/05 03:35:29;;;;;;;8.10;6.40;;;;;;;13.40;89.17;102035.78;5094858;28;20028;-58
2022/07/05 03:37:55;;;;;;;8.07;6.18;;;;;;;13.46;89.05;102043.63;5094711;28;20028;-58
2022/07/05 03:40:20;;;;;;;8.48;5.95;;;;;;;13.50;88.79;102036.63;5094392;28;20355;-59
2022/07/05 03:42:45;;;;;;;8.43;5.95;;;;;;;13.51;89.12;102047.09;5094915;28;20028;-59
2022/07/05 03:45:11;;;;;;;9.25;6.10;;;;;;;13.54;89.35;102036.56;5095158;28;20423;-58
2022/07/05 03:47:36;;;;;;;7.40;6.50;;;;;;;13.57;89.37;102048.81;5094888;28;20031;-59
2022/07/05 03:50:03;;;;;;;6.82;6.13;;;;;;;13.64;89.10;102039.16;5094717;28;20032;-58
2022/07/05 03:52:28;;;;;;;6.80;6.10;;;;;;;13.66;89.34;102040.00;5076491;28;20358;-60
2022/07/05 03:54:53;;;;;;;7.05;5.78;;;;;;;13.72;89.16;102034.69;5094729;28;20024;-58
2022/07/05 03:57:19;;;;;;;7.60;6.30;;;;;;;13.75;89.61;102045.19;5094492;28;20028;-59
2022/07/05 03:59:44;;;;;;;9.18;6.93;;;;;;;13.77;88.41;102053.94;5094926;28;20371;-58
2022/07/05 04:02:10;;;;;;;10.07;7.38;;;;;;;13.84;89.40;102053.91;5094476;28;20107;-58
2022/07/05 04:04:35;;;;;;;10.73;8.05;;;;;;;13.84;89.37;102050.41;5094482;28;20040;-58
2022/07/05 04:07:00;;;;;;;11.30;8.20;;;;;;;13.94;89.05;102054.69;5094342;28;20039;-59
2022/07/05 04:09:26;;;;;;;12.15;8.27;;;;;;;14.05;88.44;102052.84;5094693;28;20043;-57
2022/07/05 04:11:51;;;;;;;10.27;8.07;;;;;;;14.13;87.28;102060.69;5094336;28;20031;-58
2022/07/05 04:14:16;;;;;;;10.00;8.02;;;;;;;14.17;87.52;102060.66;5094252;28;20053;-59
2022/07/05 04:16:41;;;;;;;11.60;8.57;;;;;;;14.12;88.29;102051.03;5095505;28;20047;-59
2022/07/05 04:19:07;;;;;;;12.40;8.85;;;;;;;14.26;87.16;102050.03;5098055;28;20080;-59
2022/07/05 04:21:32;;;;;;;13.20;8.85;;;;;;;14.36;86.97;102060.50;5098267;28;20028;-59
2022/07/05 04:23:57;;;;;;;12.13;8.77;;;;;;;14.42;86.94;102061.31;5097898;28;20054;-57
2022/07/05 04:26:23;;;;;;;13.20;9.45;;;;;;;14.42;87.29;102060.44;5097919;28;20413;-58
2022/07/05 04:28:48;;;;;;;10.95;9.00;;;;;;;14.50;86.61;102055.97;5098292;28;20101;-59
2022/07/05 04:31:13;;;;;;;11.38;8.93;;;;;;;14.43;86.20;102041.13;5097693;28;20145;-58
2022/07/05 04:33:39;;;;;;;14.68;9.75;;;;;;;14.52;85.15;102059.47;5097728;28;20024;-58
2022/07/05 04:36:05;;;;;;;12.00;9.88;;;;;;;14.59;85.34;102066.41;5097901;28;20332;-58
2022/07/05 04:38:30;;;;;;;10.45;9.35;;;;;;;14.65;86.57;102066.34;5097727;28;20032;-58
2022/07/05 04:40:56;;;;;;;11.23;9.85;;;;;;;14.72;85.06;102064.53;5097592;28;20024;-58
2022/07/05 04:43:21;;;;;;;12.27;9.85;;;;;;;14.70;84.89;102056.66;5097546;28;20040;-58
2022/07/05 04:45:46;;;;;;;13.15;10.15;;;;;;;14.73;85.11;102059.22;5097533;28;20071;-58
2022/07/05 04:48:11;;;;;;;14.02;10.10;;;;;;;14.79;84.39;102056.53;5097592;28;20028;-57
2022/07/05 04:50:37;;;;;;;13.23;10.00;;;;;;;14.84;84.19;102057.34;5097515;28;20036;-58
2022/07/05 04:53:02;;;;;;;14.38;11.02;;;;;;;14.89;84.65;102063.44;5097395;28;20036;-58
2022/07/05 04:55:27;;;;;;;15.18;10.57;;;;;;;14.91;84.22;102055.50;5096985;28;20115;-58
2022/07/05 04:57:53;;;;;;;14.20;10.48;;;;;;;15.03;83.70;102043.97;5097351;28;20028;-58
2022/07/05 05:00:18;;;;;;;13.60;10.30;;;;;;;15.09;84.34;102055.28;5097125;28;20028;-58
2022/07/05 05:02:43;;;;;;;13.48;10.18;;;;;;;15.17;84.12;102050.78;5097678;28;20035;-58
2022/07/05 05:05:09;;;;;;;12.82;9.40;;;;;;;15.22;84.44;102056.03;5097098;28;20028;-59
2022/07/05 05:07:36;;;;;;;15.63;10.32;;;;;;;15.27;83.79;102062.09;5097149;28;20470;-59
2022/07/05 05:10:02;;;;;;;12.73;8.98;;;;;;;15.36;84.11;102059.34;5097374;28;20097;-59
2022/07/05 05:12:27;;;;;;;15.18;9.50;;;;;;;15.43;82.87;102065.38;5097004;28;20044;-58
2022/07/05 05:14:52;;;;;;;11.98;9.77;;;;;;;15.49;83.19;102063.53;5097173;28;20035;-61
2022/07/05 05:17:17;;;;;;;13.70;10.32;;;;;;;15.58;82.48;102062.59;5097090;28;20444;-59
2022/07/05 05:19:44;;;;;;;11.90;9.55;;;;;;;15.68;81.22;102058.03;5096328;28;20043;-58
2022/07/05 05:22:09;;;;;;;12.30;9.25;;;;;;;15.71;81.01;102058.88;5096989;28;20047;-59
2022/07/05 05:24:35;;;;;;;13.13;9.95;;;;;;;15.80;80.85;102058.69;5096676;28;20394;-60
2022/07/05 05:27:00;;;;;;;14.90;9.90;;;;;;;15.84;80.26;102059.53;5097081;28;20042;-58
2022/07/05 05:29:26;;;;;;;17.33;11.02;;;;;;;15.87;80.18;102063.00;5096257;28;20043;-58
2022/07/05 05:31:51;;;;;;;13.35;10.05;;;;;;;15.93;80.07;102070.81;5096255;28;20040;-59
2022/07/05 05:34:16;;;;;;;15.52;10.57;;;;;;;15.94;80.25;102079.59;5096571;28;20093;-58
2022/07/05 05:36:42;;;;;;;18.42;10.25;;;;;;;15.94;79.78;102061.13;5096918;28;20363;-59
2022/07/05 05:39:07;;;;;;;14.65;11.13;;;;;;;16.01;79.10;102071.56;5096623;28;20073;-58
2022/07/05 05:41:32;;;;;;;15.07;10.70;;;;;;;16.05;78.84;102085.59;5096420;28;20028;-58
2022/07/05 05:43:58;;;;;;;13.07;10.05;;;;;;;16.19;78.72;102082.72;5096109;28;20358;-59
2022/07/05 05:46:23;;;;;;;14.32;10.57;;;;;;;16.30;78.03;102079.00;5096361;28;20043;-59
2022/07/05 05:48:48;;;;;;;12.00;10.10;;;;;;;16.45;78.39;102085.78;5096649;28;20028;-59
2022/07/05 05:51:13;;;;;;;15.07;9.95;;;;;;;16.48;77.39;102084.84;5096703;28;20032;-58
2022/07/05 05:53:39;;;;;;;12.57;10.43;;;;;;;16.57;77.12;102090.00;5095609;28;20032;-58
2022/07/05 05:56:04;;;;;;;12.80;9.38;;;;;;;16.70;77.33;102094.16;5096050;28;20071;-58
2022/07/05 05:58:29;;;;;;;14.07;9.18;;;;;;;16.76;77.14;102095.84;5096282;28;20036;-59
2022/07/05 06:00:54;;;;;;;12.88;9.93;;;;;;;16.67;76.83;102081.88;5096127;28;20028;-59
2022/07/05 06:03:22;;;;;;;12.63;9.65;;;;;;;16.83;77.49;102102.72;5096244;28;20100;-60
2022/07/05 06:05:47;;;;;;;13.35;9.30;;;;;;;16.86;76.03;102097.41;5096101;28;20078;-59
2022/07/05 06:08:13;;;;;;;12.43;9.20;;;;;;;16.92;76.16;102103.44;5096092;28;20056;-59
2022/07/05 06:10:39;;;;;;;11.32;8.80;;;;;;;17.03;76.57;102101.44;5096074;28;20039;-60
2022/07/05 06:13:07;;;;;;;10.75;8.90;;;;;;;17.13;75.19;102104.78;5095839;28;20114;-59
2022/07/05 06:15:33;;;;;;;10.40;9.23;;;;;;;17.19;74.71;102094.06;5096117;28;20032;-59
2022/07/05 06:17:58;;;;;;;12.55;9.52;;;;;;;17.23;73.84;102100.16;5095784;28;20449;-60
2022/07/05 06:20:26;;;;;;;11.63;8.90;;;;;;;17.26;74.43;102100.13;5095697;28;20078;-59
2022/07/05 06:22:53;;;;;;;12.52;9.88;;;;;;;17.33;73.50;102109.66;5095641;28;20233;-60
2022/07/05 06:25:18;;;;;;;15.88;12.25;;;;;;;17.45;72.39;102106.75;5095706;28;20036;-61
2022/07/05 06:27:50;;;;;;;17.15;14.13;;;;;;;17.48;71.91;102112.00;5095184;28;20047;-62
2022/07/05 06:30:17;;;;;;;18.00;13.80;;;;;;;17.50;71.68;102110.16;5095720;28;20030;-60
2022/07/05 06:32:45;;;;;;;15.63;12.68;;;;;;;17.49;72.04;102110.22;5095389;28;20052;-59
2022/07/05 06:35:10;;;;;;;15.95;11.35;;;;;;;17.53;71.62;102109.22;5095563;28;20137;-61
2022/07/05 06:37:46;;;;;;;14.77;11.15;;;;;;;17.57;71.67;102119.72;5095549;28;20035;-62
2022/07/05 06:40:13;;;;;;;15.57;10.88;;;;;;;17.76;71.82;102117.56;5095320;28;20028;-61
2022/07/05 06:42:39;;;;;;;13.18;10.18;;;;;;;17.86;71.51;102113.78;5095607;28;20039;-58
2022/07/05 06:45:06;;;;;;;13.38;10.20;;;;;;;17.97;71.04;102118.84;5095437;28;20032;-58
2022/07/05 06:47:31;;;;;;;14.98;10.07;;;;;;;18.01;70.79;102120.50;5095399;28;20028;-59
2022/07/05 06:49:58;;;;;;;13.32;10.23;;;;;;;18.04;69.84;102117.78;5095133;28;20051;-58
2022/07/05 06:52:23;;;;;;;11.93;9.35;;;;;;;18.11;70.68;102122.03;5095224;28;20051;-58
2022/07/05 06:54:48;;;;;;;12.75;9.82;;;;;;;18.19;69.86;102125.34;5095200;28;20027;-58
2022/07/05 06:57:13;;;;;;;12.43;9.20;;;;;;;18.30;69.69;102120.66;5094654;28;20111;-60
2022/07/05 06:59:39;;;;;;;11.20;9.27;;;;;;;18.25;69.73;102126.97;5095023;28;20269;-59
2022/07/05 07:02:04;;;;;;;10.68;8.27;;;;;;;18.13;71.44;102122.88;5094982;28;20274;-59
2022/07/05 07:04:29;;;;;;;11.38;8.45;;;;;;;18.00;71.92;102124.06;5095118;28;20098;-59
2022/07/05 07:06:54;;;;;;;10.52;8.55;;;;;;;17.95;72.49;102128.59;5095148;28;20511;-59
2022/07/05 07:09:22;;;;;;;9.98;8.20;;;;;;;17.87;73.03;102123.47;5095037;28;20028;-59
2022/07/05 07:11:48;;;;;;;10.95;7.93;;;;;;;18.09;73.79;102113.25;5094673;28;20040;-60
2022/07/05 07:14:14;;;;;;;11.77;9.55;;;;;;;18.43;72.15;102119.44;5094999;28;20028;-60
2022/07/05 07:16:39;;;;;;;13.10;8.85;;;;;;;18.70;71.14;102117.88;5095570;28;20036;-60
2022/07/05 07:19:05;;;;;;;11.55;7.85;;;;;;;18.81;70.15;102120.25;5094926;28;20109;-60
2022/07/05 07:21:30;;;;;;;11.95;7.38;;;;;;;19.03;70.42;102115.22;5095006;28;20424;-59
2022/07/05 07:23:55;;;;;;;10.57;6.50;;;;;;;19.11;68.95;102116.75;5095194;28;20417;-60
2022/07/05 07:26:21;;;;;;;10.93;7.17;;;;;;;19.22;69.32;102127.03;5095030;28;20036;-59
2022/07/05 07:28:46;;;;;;;14.57;7.82;;;;;;;19.24;68.99;102130.50;5094892;28;20278;-59
2022/07/05 07:31:11;;;;;;;12.10;8.07;;;;;;;19.27;69.18;102133.09;5094381;28;20036;-59
2022/07/05 07:33:36;;;;;;;15.63;8.18;;;;;;;19.33;69.76;102127.59;5094678;28;20336;-59
2022/07/05 07:36:02;;;;;;;11.73;8.20;;;;;;;19.36;69.88;102124.00;5094783;28;20042;-59
2022/07/05 07:38:28;;;;;;;11.95;8.75;;;;;;;19.32;69.73;102132.97;5094745;28;20423;-60
2022/07/05 07:40:53;;;;;;;13.30;7.70;;;;;;;19.39;71.71;102131.88;5094673;28;20166;-59
2022/07/05 07:43:18;;;;;;;14.77;8.57;;;;;;;19.47;70.31;102132.50;5094776;28;20127;-59
2022/07/05 07:45:43;;;;;;;12.90;8.63;;;;;;;19.50;70.26;102136.91;5094880;28;20032;-59
2022/07/05 07:48:09;;;;;;;11.85;7.95;;;;;;;19.55;70.61;102138.50;5094800;28;20103;-59
2022/07/05 07:50:34;;;;;;;15.77;8.48;;;;;;;19.57;70.03;102134.00;5092760;28;20392;-59
2022/07/05 07:53:00;;;;;;;12.75;7.45;;;;;;;19.58;70.42;102137.50;5116033;28;20074;-60
2022/07/05 07:55:25;;;;;;;15.27;7.82;;;;;;;19.67;71.26;102131.94;5103603;28;20032;-58
2022/07/05 07:57:50;;;;;;;13.90;8.10;;;;;;;19.73;70.48;102137.94;5097638;28;20036;-60
2022/07/05 08:00:16;;;;;;;11.40;7.53;;;;;;;19.89;70.18;102133.03;5098332;28;20446;-59
2022/07/05 08:02:41;;;;;;;14.50;7.05;;;;;;;20.10;69.96;102134.97;5098270;28;20117;-60
2022/07/05 08:05:09;;;;;;;13.83;7.60;;;;;;;20.12;69.84;102137.56;5098187;28;20073;-60
2022/07/05 08:07:34;;;;;;;15.70;8.23;;;;;;;20.10;68.85;102131.44;5098448;28;20281;-59
2022/07/05 08:10:00;;;;;;;12.05;7.00;;;;;;;20.16;69.93;102139.22;5097834;28;20485;-59
2022/07/05 08:12:25;;;;;;;14.95;8.10;;;;;;;20.09;68.51;102133.22;5098134;28;20115;-59
2022/07/05 08:14:51;;;;;;;15.23;8.18;;;;;;;20.16;69.37;102136.56;5098061;28;20044;-59
2022/07/05 08:17:16;;;;;;;11.23;7.75;;;;;;;20.14;67.59;102147.25;5098007;28;20492;-59
2022/07/05 08:22:26;;;;;;;13.50;8.65;;;;;;;20.21;68.16;102142.63;5098312;28;20367;-60
2022/07/05 08:24:51;;;;;;;15.88;8.77;;;;;;;20.39;68.64;102138.50;5098034;28;20036;-60
2022/07/05 08:27:16;;;;;;;13.32;9.15;;;;;;;20.60;68.47;102144.91;5097452;28;20481;-58
2022/07/05 08:29:42;;;;;;;20.23;10.32;;;;;;;20.65;67.42;102145.59;5097425;28;20451;-58
2022/07/05 08:32:08;;;;;;;15.70;9.45;;;;;;;20.68;66.99;102143.69;5097503;28;20475;-59
2022/07/05 08:34:33;;;;;;;14.88;9.68;;;;;;;20.73;67.52;102125.78;5097702;28;20119;-59
2022/07/05 08:36:59;;;;;;;16.90;10.10;;;;;;;20.91;66.45;102144.69;5097624;28;20111;-59
2022/07/05 08:39:25;;;;;;;16.10;10.30;;;;;;;20.95;66.79;102138.34;5097658;28;20036;-60
2022/07/05 08:41:51;;;;;;;16.52;9.70;;;;;;;21.06;65.78;102142.34;5097666;28;20107;-60
2022/07/05 08:44:20;;;;;;;17.80;9.30;;;;;;;21.15;65.99;102138.44;5097864;28;20104;-59
2022/07/05 08:46:48;;;;;;;15.15;9.82;;;;;;;21.23;65.33;102130.22;5097695;28;20028;-59
2022/07/05 08:49:14;;;;;;;17.67;10.45;;;;;;;21.44;65.88;102134.75;5097597;28;20032;-59
2022/07/05 08:51:42;;;;;;;15.35;8.95;;;;;;;21.43;65.20;102141.00;5097388;28;20124;-59
2022/07/05 08:54:12;;;;;;;13.73;8.27;;;;;;;21.40;64.91;102138.44;5097460;28;20534;-59
2022/07/05 08:56:40;;;;;;;18.25;7.47;;;;;;;21.06;64.01;102137.00;5097321;28;20031;-59
2022/07/05 08:59:05;;;;;;;13.40;7.90;;;;;;;20.84;65.22;102133.38;5097198;28;20308;-60
2022/07/05 09:01:31;;;;;;;13.90;7.88;;;;;;;20.90;65.48;102138.50;5097465;28;20027;-59
2022/07/05 09:04:01;;;;;;;13.20;8.82;;;;;;;20.97;65.24;102133.78;5097330;28;20101;-59
2022/07/05 09:06:27;;;;;;;12.60;7.97;;;;;;;21.33;65.40;102129.81;5097269;28;20032;-59
2022/07/05 09:08:55;;;;;;;17.50;8.70;;;;;;;21.71;65.46;102138.13;5097052;28;20036;-61
2022/07/05 09:11:27;;;;;;;13.45;7.80;;;;;;;22.07;63.04;102134.03;5096861;28;20115;-59
2022/07/05 09:13:53;;;;;;;11.07;7.07;;;;;;;22.32;61.39;102138.38;5096756;28;20085;-59
2022/07/05 09:16:18;;;;;;;11.27;7.00;;;;;;;23.00;59.18;102135.41;5096827;28;20036;-60
2022/07/05 09:18:56;;;;;;;7.18;3.83;;;;;;;23.47;54.83;102133.25;5096890;28;20024;-59
2022/07/05 09:21:23;;;;;;;8.88;4.15;;;;;;;23.79;53.61;102137.09;5097185;28;20031;-60
2022/07/05 09:24:08;;;;;;;8.55;4.60;;;;;;;23.73;55.25;102136.50;5096676;28;20032;-59
2022/07/05 09:26:39;;;;;;;10.70;5.03;;;;;;;23.19;55.34;102141.66;5096567;28;20039;-57
2022/07/05 09:29:08;;;;;;;8.80;4.85;;;;;;;23.68;53.52;102136.75;5096816;28;20032;-60
2022/07/05 09:31:39;;;;;;;7.15;4.45;;;;;;;24.63;51.11;102127.56;5096755;28;20052;-59
2022/07/05 09:34:14;;;;;;;8.23;3.50;;;;;;;24.55;51.01;102127.09;5096485;28;20425;-59
2022/07/05 09:36:58;;;;;;;6.78;3.15;;;;;;;24.93;48.60;102134.00;5096616;28;20355;-59
2022/07/05 09:39:32;;;;;;;6.60;3.55;;;;;;;25.49;46.50;102137.25;5096486;28;20052;-59
2022/07/05 09:42:20;;;;;;;9.20;4.20;;;;;;;25.00;45.41;102131.00;5096304;28;20028;-59
2022/07/05 09:44:48;;;;;;;5.65;4.03;;;;;;;24.39;47.92;102127.03;5096596;28;20032;-58
2022/07/05 09:47:15;;;;;;;8.15;5.40;;;;;;;23.84;49.05;102127.03;5096414;28;20436;-59
2022/07/05 09:49:52;;;;;;;7.00;3.95;;;;;;;23.36;49.26;102127.53;5096609;28;20347;-60
2022/07/05 09:52:27;;;;;;;6.70;3.97;;;;;;;23.33;50.63;102124.13;5096420;28;20039;-59
2022/07/05 09:55:09;;;;;;;8.27;4.68;;;;;;;23.39;52.26;102119.34;5096535;28;20158;-58
2022/07/05 09:57:39;;;;;;;7.03;4.50;;;;;;;23.12;50.61;102121.50;5096317;28;20028;-59
2022/07/05 10:00:07;;;;;;;7.00;4.50;;;;;;;22.73;48.91;102113.44;5095976;28;20447;-59
2022/07/05 10:02:41;;;;;;;6.13;3.60;;;;;;;22.85;51.70;102125.44;5096579;28;20411;-59
2022/07/05 10:05:12;;;;;;;5.13;3.55;;;;;;;22.84;52.04;102113.00;5096005;28;20028;-60
2022/07/05 10:07:41;;;;;;;7.00;3.00;;;;;;;22.67;50.49;102120.84;5096004;28;20036;-58
2022/07/05 10:10:08;;;;;;;8.73;3.50;;;;;;;22.53;50.58;102124.97;5095905;28;20118;-59
2022/07/05 10:12:36;;;;;;;5.60;2.80;;;;;;;22.18;50.47;102126.44;5096014;28;20032;-58
2022/07/05 10:15:02;;;;;;;7.97;3.40;;;;;;;21.94;51.60;102132.78;5095267;28;20335;-60
2022/07/05 10:17:30;;;;;;;6.88;3.97;;;;;;;21.75;51.49;102135.28;5095855;28;20036;-59
2022/07/05 10:19:57;;;;;;;7.20;3.55;;;;;;;21.86;53.13;102140.19;5095757;28;20035;-60
2022/07/05 10:22:23;;;;;;;5.43;3.55;;;;;;;21.98;52.06;102141.53;5095783;28;20028;-59
2022/07/05 10:24:49;;;;;;;4.95;3.50;;;;;;;22.07;52.62;102135.84;5095702;28;20062;-60
2022/07/05 10:27:14;;;;;;;8.30;4.70;;;;;;;22.12;50.72;102134.72;5095675;28;20043;-60
2022/07/05 10:29:40;;;;;;;7.30;4.30;;;;;;;22.17;52.71;102130.03;5096163;28;20390;-60
2022/07/05 10:32:09;;;;;;;7.32;5.07;;;;;;;22.39;51.88;102127.34;5095363;28;20401;-59
2022/07/05 10:34:35;;;;;;;9.05;5.10;;;;;;;22.87;51.02;102123.53;5095714;28;20028;-58
2022/07/05 10:37:00;;;;;;;6.68;4.70;;;;;;;23.19;49.43;102122.97;5095339;28;20087;-60
2022/07/05 10:39:26;;;;;;;7.53;4.10;;;;;;;23.27;50.13;102123.47;5095461;28;20119;-59
2022/07/05 10:41:53;;;;;;;8.88;3.25;;;;;;;23.33;48.70;102124.13;5095513;28;20067;-60
2022/07/05 10:44:31;;;;;;;5.20;3.05;;;;;;;23.43;48.95;102128.09;5095623;28;20066;-59
2022/07/05 10:47:12;;;;;;;4.10;2.58;;;;;;;23.39;48.73;102111.34;5094928;28;20044;-59
2022/07/05 10:49:39;;;;;;;3.47;2.95;;;;;;;23.35;47.32;102122.25;5095264;28;20443;-59
2022/07/05 10:52:21;;;;;;;5.82;2.53;;;;;;;23.43;48.05;102114.75;5095029;28;20340;-60
2022/07/05 10:55:17;;;;;;;6.90;2.75;;;;;;;23.45;47.78;102116.41;5095516;28;20050;-58
2022/07/05 10:57:42;;;;;;;5.50;2.45;;;;;;;23.58;45.73;102122.06;5094946;28;20107;-60
2022/07/05 11:00:12;;;;;;;5.07;2.50;;;;;;;23.79;45.52;102126.38;5095231;28;20119;-60
2022/07/05 11:02:38;;;;;;;4.28;2.10;;;;;;;23.86;44.46;102118.94;5095379;28;20036;-59
2022/07/05 11:05:03;;;;;;;5.47;2.55;;;;;;;23.79;44.77;102117.50;5095189;28;20355;-59
2022/07/05 11:07:57;;;;;;;2.53;2.13;;;;;;;23.62;46.66;102139.69;5094805;28;20040;-60
2022/07/05 11:10:23;;;;;;;2.67;1.80;;;;;;;23.39;45.97;102131.84;5094685;28;20028;-59
2022/07/05 11:12:48;;;;;;;4.43;2.15;;;;;;;23.07;44.32;102125.31;5095020;28;20346;-60
2022/07/05 11:15:14;;;;;;;5.60;2.13;;;;;;;22.91;45.50;102135.81;5094908;28;20030;-59
2022/07/05 11:17:40;;;;;;;4.18;2.60;;;;;;;22.75;45.97;102129.38;5095141;28;20031;-60
2022/07/05 11:20:27;;;;;;;3.92;2.00;;;;;;;22.84;47.42;102139.72;5095285;28;20032;-58